sensor_id;sensor_type;location;lat;lon;timestamp;P1;durP1;ratioP1;P2;durP2;ratioP2
12689;SDS011;6409;56.294;14.480;2023-07-20T00:00:08;0.30;;;0.30;;
12689;SDS011;6409;56.294;14.480;2023-07-20T00:02:37;0.30;;;0.30;;
12689;SDS011;6409;56.294;14.480;2023-07-20T00:05:04;0.30;;;0.30;;
12689;SDS011;6409;56.294;14.480;2023-07-20T00:07:32;0.30;;;0.30;;
12689;SDS011;6409;56.294;14.480;2023-07-20T00:10:00;0.30;;;0.30;;
12689;SDS011;6409;56.294;14.480;2023-07-20T00:12:27;0.30;;;0.30;;
12689;SDS011;6409;56.294;14.480;2023-07-20T00:14:54;0.30;;;0.30;;
12689;SDS011;6409;56.294;14.480;2023-07-20T00:17:21;0.30;;;0.30;;
12689;SDS011;6409;56.294;14.480;2023-07-20T00:19:48;0.30;;;0.30;;
12689;SDS011;6409;56.294;14.480;2023-07-20T00:22:15;0.30;;;0.30;;
12689;SDS011;6409;56.294;14.480;2023-07-20T00:24:42;0.30;;;0.30;;
12689;SDS011;6409;56.294;14.480;2023-07-20T00:27:10;0.30;;;0.30;;
12689;SDS011;6409;56.294;14.480;2023-07-20T00:29:37;0.30;;;0.30;;
12689;SDS011;6409;56.294;14.480;2023-07-20T00:32:04;0.30;;;0.30;;
12689;SDS011;6409;56.294;14.480;2023-07-20T00:34:32;0.30;;;0.30;;
12689;SDS011;6409;56.294;14.480;2023-07-20T00:36:59;0.30;;;0.30;;
12689;SDS011;6409;56.294;14.480;2023-07-20T00:39:26;0.30;;;0.30;;
12689;SDS011;6409;56.294;14.480;2023-07-20T00:41:53;0.30;;;0.30;;
12689;SDS011;6409;56.294;14.480;2023-07-20T00:44:21;0.30;;;0.30;;
12689;SDS011;6409;56.294;14.480;2023-07-20T00:46:48;0.30;;;0.30;;
12689;SDS011;6409;56.294;14.480;2023-07-20T00:49:15;0.40;;;0.40;;
12689;SDS011;6409;56.294;14.480;2023-07-20T00:51:46;0.40;;;0.40;;
12689;SDS011;6409;56.294;14.480;2023-07-20T00:54:13;0.30;;;0.30;;
12689;SDS011;6409;56.294;14.480;2023-07-20T00:56:41;0.40;;;0.40;;
12689;SDS011;6409;56.294;14.480;2023-07-20T00:59:08;0.40;;;0.40;;
12689;SDS011;6409;56.294;14.480;2023-07-20T01:01:37;0.40;;;0.40;;
12689;SDS011;6409;56.294;14.480;2023-07-20T01:04:04;0.40;;;0.40;;
12689;SDS011;6409;56.294;14.480;2023-07-20T01:06:33;0.40;;;0.40;;
12689;SDS011;6409;56.294;14.480;2023-07-20T01:09:08;0.30;;;0.30;;
12689;SDS011;6409;56.294;14.480;2023-07-20T01:11:42;0.30;;;0.30;;
12689;SDS011;6409;56.294;14.480;2023-07-20T01:14:13;0.30;;;0.30;;
12689;SDS011;6409;56.294;14.480;2023-07-20T01:16:42;0.30;;;0.30;;
12689;SDS011;6409;56.294;14.480;2023-07-20T01:19:09;0.30;;;0.30;;
12689;SDS011;6409;56.294;14.480;2023-07-20T01:21:37;0.30;;;0.30;;
12689;SDS011;6409;56.294;14.480;2023-07-20T01:24:16;0.30;;;0.30;;
12689;SDS011;6409;56.294;14.480;2023-07-20T01:30:08;0.30;;;0.30;;
12689;SDS011;6409;56.294;14.480;2023-07-20T01:32:43;0.30;;;0.30;;
12689;SDS011;6409;56.294;14.480;2023-07-20T01:35:11;0.30;;;0.30;;
12689;SDS011;6409;56.294;14.480;2023-07-20T01:37:39;0.30;;;0.30;;
12689;SDS011;6409;56.294;14.480;2023-07-20T01:40:08;0.30;;;0.30;;
12689;SDS011;6409;56.294;14.480;2023-07-20T01:42:37;0.30;;;0.30;;
12689;SDS011;6409;56.294;14.480;2023-07-20T01:45:04;0.40;;;0.40;;
12689;SDS011;6409;56.294;14.480;2023-07-20T01:47:32;0.30;;;0.30;;
12689;SDS011;6409;56.294;14.480;2023-07-20T01:50:00;0.30;;;0.30;;
12689;SDS011;6409;56.294;14.480;2023-07-20T01:52:27;0.27;;;0.27;;
12689;SDS011;6409;56.294;14.480;2023-07-20T01:54:54;0.30;;;0.30;;
12689;SDS011;6409;56.294;14.480;2023-07-20T01:57:22;0.30;;;0.30;;
12689;SDS011;6409;56.294;14.480;2023-07-20T01:59:49;0.30;;;0.30;;
12689;SDS011;6409;56.294;14.480;2023-07-20T02:02:16;0.30;;;0.30;;
12689;SDS011;6409;56.294;14.480;2023-07-20T02:04:43;0.30;;;0.30;;
12689;SDS011;6409;56.294;14.480;2023-07-20T02:07:11;0.30;;;0.30;;
12689;SDS011;6409;56.294;14.480;2023-07-20T02:09:38;0.30;;;0.30;;
12689;SDS011;6409;56.294;14.480;2023-07-20T02:12:05;0.30;;;0.30;;
12689;SDS011;6409;56.294;14.480;2023-07-20T02:14:32;0.33;;;0.33;;
12689;SDS011;6409;56.294;14.480;2023-07-20T02:16:59;0.30;;;0.30;;
12689;SDS011;6409;56.294;14.480;2023-07-20T02:19:26;0.40;;;0.40;;
12689;SDS011;6409;56.294;14.480;2023-07-20T02:21:53;0.30;;;0.30;;
12689;SDS011;6409;56.294;14.480;2023-07-20T02:24:21;0.30;;;0.30;;
12689;SDS011;6409;56.294;14.480;2023-07-20T02:26:48;0.30;;;0.30;;
12689;SDS011;6409;56.294;14.480;2023-07-20T02:29:15;0.30;;;0.30;;
12689;SDS011;6409;56.294;14.480;2023-07-20T02:31:42;0.30;;;0.30;;
12689;SDS011;6409;56.294;14.480;2023-07-20T02:34:09;0.30;;;0.30;;
12689;SDS011;6409;56.294;14.480;2023-07-20T02:36:36;0.30;;;0.30;;
12689;SDS011;6409;56.294;14.480;2023-07-20T02:39:03;0.30;;;0.30;;
12689;SDS011;6409;56.294;14.480;2023-07-20T02:41:33;0.30;;;0.30;;
12689;SDS011;6409;56.294;14.480;2023-07-20T02:44:00;0.30;;;0.30;;
12689;SDS011;6409;56.294;14.480;2023-07-20T02:46:28;0.30;;;0.30;;
12689;SDS011;6409;56.294;14.480;2023-07-20T02:48:55;0.30;;;0.30;;
12689;SDS011;6409;56.294;14.480;2023-07-20T02:51:22;0.30;;;0.30;;
12689;SDS011;6409;56.294;14.480;2023-07-20T02:53:49;0.30;;;0.30;;
12689;SDS011;6409;56.294;14.480;2023-07-20T02:56:16;0.30;;;0.30;;
12689;SDS011;6409;56.294;14.480;2023-07-20T02:58:45;0.30;;;0.30;;
12689;SDS011;6409;56.294;14.480;2023-07-20T03:01:12;0.30;;;0.30;;
12689;SDS011;6409;56.294;14.480;2023-07-20T03:03:40;0.30;;;0.30;;
12689;SDS011;6409;56.294;14.480;2023-07-20T03:06:11;0.30;;;0.30;;
12689;SDS011;6409;56.294;14.480;2023-07-20T03:08:39;0.30;;;0.30;;
12689;SDS011;6409;56.294;14.480;2023-07-20T03:11:12;0.40;;;0.40;;
12689;SDS011;6409;56.294;14.480;2023-07-20T03:13:41;0.30;;;0.30;;
12689;SDS011;6409;56.294;14.480;2023-07-20T03:16:10;0.30;;;0.30;;
12689;SDS011;6409;56.294;14.480;2023-07-20T03:18:37;0.30;;;0.30;;
12689;SDS011;6409;56.294;14.480;2023-07-20T03:21:04;0.30;;;0.30;;
12689;SDS011;6409;56.294;14.480;2023-07-20T03:23:31;0.30;;;0.30;;
12689;SDS011;6409;56.294;14.480;2023-07-20T03:25:58;0.30;;;0.30;;
12689;SDS011;6409;56.294;14.480;2023-07-20T03:28:25;0.30;;;0.30;;
12689;SDS011;6409;56.294;14.480;2023-07-20T03:30:52;0.30;;;0.30;;
12689;SDS011;6409;56.294;14.480;2023-07-20T03:33:22;0.30;;;0.30;;
12689;SDS011;6409;56.294;14.480;2023-07-20T03:35:50;0.30;;;0.30;;
12689;SDS011;6409;56.294;14.480;2023-07-20T03:38:18;0.30;;;0.30;;
12689;SDS011;6409;56.294;14.480;2023-07-20T03:40:54;0.30;;;0.30;;
12689;SDS011;6409;56.294;14.480;2023-07-20T03:43:22;0.30;;;0.30;;
12689;SDS011;6409;56.294;14.480;2023-07-20T03:45:49;0.30;;;0.30;;
12689;SDS011;6409;56.294;14.480;2023-07-20T03:48:17;0.40;;;0.40;;
12689;SDS011;6409;56.294;14.480;2023-07-20T03:50:47;0.40;;;0.40;;
12689;SDS011;6409;56.294;14.480;2023-07-20T03:53:14;0.30;;;0.30;;
12689;SDS011;6409;56.294;14.480;2023-07-20T03:55:44;0.37;;;0.37;;
12689;SDS011;6409;56.294;14.480;2023-07-20T03:58:11;0.30;;;0.30;;
12689;SDS011;6409;56.294;14.480;2023-07-20T04:00:38;0.37;;;0.37;;
12689;SDS011;6409;56.294;14.480;2023-07-20T04:03:05;0.40;;;0.40;;
12689;SDS011;6409;56.294;14.480;2023-07-20T04:05:32;0.40;;;0.40;;
12689;SDS011;6409;56.294;14.480;2023-07-20T04:08:01;0.40;;;0.40;;
12689;SDS011;6409;56.294;14.480;2023-07-20T04:10:28;0.30;;;0.30;;
12689;SDS011;6409;56.294;14.480;2023-07-20T04:12:54;0.30;;;0.30;;
12689;SDS011;6409;56.294;14.480;2023-07-20T04:15:21;0.30;;;0.30;;
12689;SDS011;6409;56.294;14.480;2023-07-20T04:17:48;0.20;;;0.20;;
12689;SDS011;6409;56.294;14.480;2023-07-20T04:20:15;0.30;;;0.30;;
12689;SDS011;6409;56.294;14.480;2023-07-20T04:22:43;0.20;;;0.20;;
12689;SDS011;6409;56.294;14.480;2023-07-20T04:25:11;0.30;;;0.30;;
12689;SDS011;6409;56.294;14.480;2023-07-20T04:27:38;0.27;;;0.27;;
12689;SDS011;6409;56.294;14.480;2023-07-20T04:30:06;0.30;;;0.30;;
12689;SDS011;6409;56.294;14.480;2023-07-20T04:32:34;0.20;;;0.20;;
12689;SDS011;6409;56.294;14.480;2023-07-20T04:35:05;0.30;;;0.30;;
12689;SDS011;6409;56.294;14.480;2023-07-20T04:37:33;0.30;;;0.30;;
12689;SDS011;6409;56.294;14.480;2023-07-20T04:40:00;0.30;;;0.30;;
12689;SDS011;6409;56.294;14.480;2023-07-20T04:42:30;0.30;;;0.30;;
12689;SDS011;6409;56.294;14.480;2023-07-20T04:44:57;0.30;;;0.30;;
12689;SDS011;6409;56.294;14.480;2023-07-20T04:47:23;0.20;;;0.20;;
12689;SDS011;6409;56.294;14.480;2023-07-20T04:49:50;0.30;;;0.30;;
12689;SDS011;6409;56.294;14.480;2023-07-20T04:52:17;0.30;;;0.30;;
12689;SDS011;6409;56.294;14.480;2023-07-20T04:54:44;0.30;;;0.30;;
12689;SDS011;6409;56.294;14.480;2023-07-20T04:57:11;0.30;;;0.30;;
12689;SDS011;6409;56.294;14.480;2023-07-20T04:59:40;0.30;;;0.30;;
12689;SDS011;6409;56.294;14.480;2023-07-20T05:02:07;0.30;;;0.30;;
12689;SDS011;6409;56.294;14.480;2023-07-20T05:04:34;0.30;;;0.30;;
12689;SDS011;6409;56.294;14.480;2023-07-20T05:07:01;0.30;;;0.30;;
12689;SDS011;6409;56.294;14.480;2023-07-20T05:09:28;0.30;;;0.30;;
12689;SDS011;6409;56.294;14.480;2023-07-20T05:11:54;0.30;;;0.30;;
12689;SDS011;6409;56.294;14.480;2023-07-20T05:14:21;0.30;;;0.30;;
12689;SDS011;6409;56.294;14.480;2023-07-20T05:16:50;0.30;;;0.30;;
12689;SDS011;6409;56.294;14.480;2023-07-20T05:19:16;0.30;;;0.30;;
12689;SDS011;6409;56.294;14.480;2023-07-20T05:21:43;0.30;;;0.30;;
12689;SDS011;6409;56.294;14.480;2023-07-20T05:24:10;0.40;;;0.40;;
12689;SDS011;6409;56.294;14.480;2023-07-20T05:26:37;0.40;;;0.40;;
12689;SDS011;6409;56.294;14.480;2023-07-20T05:29:04;0.40;;;0.40;;
12689;SDS011;6409;56.294;14.480;2023-07-20T05:31:31;0.40;;;0.40;;
12689;SDS011;6409;56.294;14.480;2023-07-20T05:33:59;0.50;;;0.50;;
12689;SDS011;6409;56.294;14.480;2023-07-20T05:36:26;0.50;;;0.50;;
12689;SDS011;6409;56.294;14.480;2023-07-20T05:38:53;0.50;;;0.50;;
12689;SDS011;6409;56.294;14.480;2023-07-20T05:41:20;0.57;;;0.57;;
12689;SDS011;6409;56.294;14.480;2023-07-20T05:43:47;0.50;;;0.50;;
12689;SDS011;6409;56.294;14.480;2023-07-20T05:46:14;0.60;;;0.60;;
12689;SDS011;6409;56.294;14.480;2023-07-20T05:48:41;0.60;;;0.60;;
12689;SDS011;6409;56.294;14.480;2023-07-20T05:51:09;0.60;;;0.60;;
12689;SDS011;6409;56.294;14.480;2023-07-20T05:53:36;0.60;;;0.60;;
12689;SDS011;6409;56.294;14.480;2023-07-20T05:56:04;0.60;;;0.60;;
12689;SDS011;6409;56.294;14.480;2023-07-20T05:58:31;0.77;;;0.77;;
12689;SDS011;6409;56.294;14.480;2023-07-20T06:00:58;0.63;;;0.63;;
12689;SDS011;6409;56.294;14.480;2023-07-20T06:03:25;0.70;;;0.70;;
12689;SDS011;6409;56.294;14.480;2023-07-20T06:05:52;0.60;;;0.60;;
12689;SDS011;6409;56.294;14.480;2023-07-20T06:08:25;0.60;;;0.60;;
12689;SDS011;6409;56.294;14.480;2023-07-20T06:10:52;0.70;;;0.70;;
12689;SDS011;6409;56.294;14.480;2023-07-20T06:13:19;0.70;;;0.70;;
12689;SDS011;6409;56.294;14.480;2023-07-20T06:15:46;0.70;;;0.70;;
12689;SDS011;6409;56.294;14.480;2023-07-20T06:18:13;0.70;;;0.70;;
12689;SDS011;6409;56.294;14.480;2023-07-20T06:20:42;0.70;;;0.70;;
12689;SDS011;6409;56.294;14.480;2023-07-20T06:23:09;0.80;;;0.80;;
12689;SDS011;6409;56.294;14.480;2023-07-20T06:25:37;0.80;;;0.80;;
12689;SDS011;6409;56.294;14.480;2023-07-20T06:28:04;0.73;;;0.73;;
12689;SDS011;6409;56.294;14.480;2023-07-20T06:30:33;0.80;;;0.80;;
12689;SDS011;6409;56.294;14.480;2023-07-20T06:33:00;0.80;;;0.80;;
12689;SDS011;6409;56.294;14.480;2023-07-20T06:35:27;0.87;;;0.87;;
12689;SDS011;6409;56.294;14.480;2023-07-20T06:37:54;0.80;;;0.80;;
12689;SDS011;6409;56.294;14.480;2023-07-20T06:40:21;0.80;;;0.80;;
12689;SDS011;6409;56.294;14.480;2023-07-20T06:42:49;0.70;;;0.70;;
12689;SDS011;6409;56.294;14.480;2023-07-20T06:45:16;0.80;;;0.80;;
12689;SDS011;6409;56.294;14.480;2023-07-20T06:47:43;0.80;;;0.80;;
12689;SDS011;6409;56.294;14.480;2023-07-20T06:50:10;1.00;;;1.00;;
12689;SDS011;6409;56.294;14.480;2023-07-20T06:52:37;1.00;;;1.00;;
12689;SDS011;6409;56.294;14.480;2023-07-20T06:55:05;1.10;;;1.10;;
12689;SDS011;6409;56.294;14.480;2023-07-20T06:57:33;1.10;;;1.10;;
12689;SDS011;6409;56.294;14.480;2023-07-20T07:00:01;1.00;;;1.00;;
12689;SDS011;6409;56.294;14.480;2023-07-20T07:02:29;0.90;;;0.90;;
12689;SDS011;6409;56.294;14.480;2023-07-20T07:04:56;1.00;;;1.00;;
12689;SDS011;6409;56.294;14.480;2023-07-20T07:07:23;1.17;;;1.17;;
12689;SDS011;6409;56.294;14.480;2023-07-20T07:09:50;0.93;;;0.93;;
12689;SDS011;6409;56.294;14.480;2023-07-20T07:12:17;0.70;;;0.70;;
12689;SDS011;6409;56.294;14.480;2023-07-20T07:14:44;0.70;;;0.70;;
12689;SDS011;6409;56.294;14.480;2023-07-20T07:17:12;0.70;;;0.70;;
12689;SDS011;6409;56.294;14.480;2023-07-20T07:19:39;0.70;;;0.70;;
12689;SDS011;6409;56.294;14.480;2023-07-20T07:22:07;0.70;;;0.70;;
12689;SDS011;6409;56.294;14.480;2023-07-20T07:24:34;0.80;;;0.80;;
12689;SDS011;6409;56.294;14.480;2023-07-20T07:27:01;0.70;;;0.70;;
12689;SDS011;6409;56.294;14.480;2023-07-20T07:29:29;0.70;;;0.70;;
12689;SDS011;6409;56.294;14.480;2023-07-20T07:31:56;0.70;;;0.70;;
12689;SDS011;6409;56.294;14.480;2023-07-20T07:34:24;0.70;;;0.70;;
12689;SDS011;6409;56.294;14.480;2023-07-20T07:36:51;0.70;;;0.70;;
12689;SDS011;6409;56.294;14.480;2023-07-20T07:39:18;0.70;;;0.70;;
12689;SDS011;6409;56.294;14.480;2023-07-20T07:41:45;0.70;;;0.70;;
12689;SDS011;6409;56.294;14.480;2023-07-20T07:44:12;0.60;;;0.60;;
12689;SDS011;6409;56.294;14.480;2023-07-20T07:46:39;0.70;;;0.70;;
12689;SDS011;6409;56.294;14.480;2023-07-20T07:49:06;0.60;;;0.60;;
12689;SDS011;6409;56.294;14.480;2023-07-20T07:51:35;0.60;;;0.60;;
12689;SDS011;6409;56.294;14.480;2023-07-20T07:54:02;0.60;;;0.60;;
12689;SDS011;6409;56.294;14.480;2023-07-20T07:56:29;0.60;;;0.60;;
12689;SDS011;6409;56.294;14.480;2023-07-20T07:58:55;0.70;;;0.70;;
12689;SDS011;6409;56.294;14.480;2023-07-20T08:01:22;0.70;;;0.70;;
12689;SDS011;6409;56.294;14.480;2023-07-20T08:03:50;0.70;;;0.70;;
12689;SDS011;6409;56.294;14.480;2023-07-20T08:06:17;0.77;;;0.77;;
12689;SDS011;6409;56.294;14.480;2023-07-20T08:08:45;0.80;;;0.80;;
12689;SDS011;6409;56.294;14.480;2023-07-20T08:11:12;0.80;;;0.80;;
12689;SDS011;6409;56.294;14.480;2023-07-20T08:13:39;0.87;;;0.87;;
12689;SDS011;6409;56.294;14.480;2023-07-20T08:16:08;0.90;;;0.90;;
12689;SDS011;6409;56.294;14.480;2023-07-20T08:18:35;0.80;;;0.80;;
12689;SDS011;6409;56.294;14.480;2023-07-20T08:21:02;0.70;;;0.70;;
12689;SDS011;6409;56.294;14.480;2023-07-20T08:23:29;0.80;;;0.80;;
12689;SDS011;6409;56.294;14.480;2023-07-20T08:25:57;0.70;;;0.70;;
12689;SDS011;6409;56.294;14.480;2023-07-20T08:28:26;0.70;;;0.70;;
12689;SDS011;6409;56.294;14.480;2023-07-20T08:30:54;0.70;;;0.70;;
12689;SDS011;6409;56.294;14.480;2023-07-20T08:33:21;0.70;;;0.70;;
12689;SDS011;6409;56.294;14.480;2023-07-20T08:35:49;0.73;;;0.73;;
12689;SDS011;6409;56.294;14.480;2023-07-20T08:38:16;0.80;;;0.80;;
12689;SDS011;6409;56.294;14.480;2023-07-20T08:40:43;0.80;;;0.80;;
12689;SDS011;6409;56.294;14.480;2023-07-20T08:43:13;0.70;;;0.70;;
12689;SDS011;6409;56.294;14.480;2023-07-20T08:45:41;0.80;;;0.80;;
12689;SDS011;6409;56.294;14.480;2023-07-20T08:48:09;0.70;;;0.70;;
12689;SDS011;6409;56.294;14.480;2023-07-20T08:50:36;0.70;;;0.70;;
12689;SDS011;6409;56.294;14.480;2023-07-20T08:53:04;0.70;;;0.70;;
12689;SDS011;6409;56.294;14.480;2023-07-20T08:55:32;0.80;;;0.80;;
12689;SDS011;6409;56.294;14.480;2023-07-20T08:58:00;0.70;;;0.70;;
12689;SDS011;6409;56.294;14.480;2023-07-20T09:00:28;0.70;;;0.70;;
12689;SDS011;6409;56.294;14.480;2023-07-20T09:02:55;0.80;;;0.80;;
12689;SDS011;6409;56.294;14.480;2023-07-20T09:05:23;0.80;;;0.80;;
12689;SDS011;6409;56.294;14.480;2023-07-20T09:07:51;0.80;;;0.80;;
12689;SDS011;6409;56.294;14.480;2023-07-20T09:10:18;0.80;;;0.80;;
12689;SDS011;6409;56.294;14.480;2023-07-20T09:12:47;0.80;;;0.80;;
12689;SDS011;6409;56.294;14.480;2023-07-20T09:15:14;0.90;;;0.90;;
12689;SDS011;6409;56.294;14.480;2023-07-20T09:17:46;0.90;;;0.90;;
12689;SDS011;6409;56.294;14.480;2023-07-20T09:20:14;0.90;;;0.90;;
12689;SDS011;6409;56.294;14.480;2023-07-20T09:22:42;0.90;;;0.90;;
12689;SDS011;6409;56.294;14.480;2023-07-20T09:25:11;0.90;;;0.90;;
12689;SDS011;6409;56.294;14.480;2023-07-20T09:27:39;0.80;;;0.80;;
12689;SDS011;6409;56.294;14.480;2023-07-20T09:30:07;0.90;;;0.90;;
12689;SDS011;6409;56.294;14.480;2023-07-20T09:32:39;0.90;;;0.90;;
12689;SDS011;6409;56.294;14.480;2023-07-20T09:35:13;0.83;;;0.83;;
12689;SDS011;6409;56.294;14.480;2023-07-20T09:37:45;1.00;;;1.00;;
12689;SDS011;6409;56.294;14.480;2023-07-20T09:40:14;0.90;;;0.90;;
12689;SDS011;6409;56.294;14.480;2023-07-20T09:42:42;0.90;;;0.90;;
12689;SDS011;6409;56.294;14.480;2023-07-20T09:45:09;1.10;;;1.10;;
12689;SDS011;6409;56.294;14.480;2023-07-20T09:47:36;1.00;;;1.00;;
12689;SDS011;6409;56.294;14.480;2023-07-20T09:50:05;1.10;;;1.10;;
12689;SDS011;6409;56.294;14.480;2023-07-20T09:52:37;1.00;;;1.00;;
12689;SDS011;6409;56.294;14.480;2023-07-20T09:55:05;0.90;;;0.90;;
12689;SDS011;6409;56.294;14.480;2023-07-20T09:57:33;0.70;;;0.70;;
12689;SDS011;6409;56.294;14.480;2023-07-20T10:00:01;0.70;;;0.70;;
12689;SDS011;6409;56.294;14.480;2023-07-20T10:02:33;0.70;;;0.70;;
12689;SDS011;6409;56.294;14.480;2023-07-20T10:05:01;0.70;;;0.70;;
12689;SDS011;6409;56.294;14.480;2023-07-20T10:07:30;0.40;;;0.40;;
12689;SDS011;6409;56.294;14.480;2023-07-20T10:09:59;0.40;;;0.40;;
12689;SDS011;6409;56.294;14.480;2023-07-20T10:12:29;0.40;;;0.40;;
12689;SDS011;6409;56.294;14.480;2023-07-20T10:14:59;0.50;;;0.50;;
12689;SDS011;6409;56.294;14.480;2023-07-20T10:17:31;0.50;;;0.50;;
12689;SDS011;6409;56.294;14.480;2023-07-20T10:19:58;0.60;;;0.60;;
12689;SDS011;6409;56.294;14.480;2023-07-20T10:22:29;0.60;;;0.60;;
12689;SDS011;6409;56.294;14.480;2023-07-20T10:25:00;0.60;;;0.60;;
12689;SDS011;6409;56.294;14.480;2023-07-20T10:27:30;0.70;;;0.70;;
12689;SDS011;6409;56.294;14.480;2023-07-20T10:29:57;0.70;;;0.70;;
12689;SDS011;6409;56.294;14.480;2023-07-20T10:32:25;0.60;;;0.60;;
12689;SDS011;6409;56.294;14.480;2023-07-20T10:34:52;0.63;;;0.63;;
12689;SDS011;6409;56.294;14.480;2023-07-20T10:40:26;0.70;;;0.70;;
12689;SDS011;6409;56.294;14.480;2023-07-20T10:42:57;0.60;;;0.60;;
12689;SDS011;6409;56.294;14.480;2023-07-20T10:45:35;0.60;;;0.60;;
12689;SDS011;6409;56.294;14.480;2023-07-20T10:48:14;0.60;;;0.60;;
12689;SDS011;6409;56.294;14.480;2023-07-20T10:50:43;0.70;;;0.70;;
12689;SDS011;6409;56.294;14.480;2023-07-20T10:53:10;0.60;;;0.60;;
12689;SDS011;6409;56.294;14.480;2023-07-20T10:55:40;0.70;;;0.70;;
12689;SDS011;6409;56.294;14.480;2023-07-20T10:58:07;0.63;;;0.63;;
12689;SDS011;6409;56.294;14.480;2023-07-20T11:00:35;0.70;;;0.70;;
12689;SDS011;6409;56.294;14.480;2023-07-20T11:03:02;0.80;;;0.80;;
12689;SDS011;6409;56.294;14.480;2023-07-20T11:05:36;0.70;;;0.70;;
12689;SDS011;6409;56.294;14.480;2023-07-20T11:08:05;0.60;;;0.60;;
12689;SDS011;6409;56.294;14.480;2023-07-20T11:10:32;0.60;;;0.60;;
12689;SDS011;6409;56.294;14.480;2023-07-20T11:15:48;0.70;;;0.70;;
12689;SDS011;6409;56.294;14.480;2023-07-20T11:18:28;0.70;;;0.70;;
12689;SDS011;6409;56.294;14.480;2023-07-20T11:20:56;0.70;;;0.70;;
12689;SDS011;6409;56.294;14.480;2023-07-20T11:23:23;0.67;;;0.67;;
12689;SDS011;6409;56.294;14.480;2023-07-20T11:25:50;0.70;;;0.70;;
12689;SDS011;6409;56.294;14.480;2023-07-20T11:28:17;0.70;;;0.70;;
12689;SDS011;6409;56.294;14.480;2023-07-20T11:30:49;0.70;;;0.70;;
12689;SDS011;6409;56.294;14.480;2023-07-20T11:33:18;0.70;;;0.70;;
12689;SDS011;6409;56.294;14.480;2023-07-20T11:35:45;0.70;;;0.70;;
12689;SDS011;6409;56.294;14.480;2023-07-20T11:38:13;0.70;;;0.70;;
12689;SDS011;6409;56.294;14.480;2023-07-20T11:40:42;0.70;;;0.70;;
12689;SDS011;6409;56.294;14.480;2023-07-20T11:43:09;0.80;;;0.80;;
12689;SDS011;6409;56.294;14.480;2023-07-20T11:45:38;0.70;;;0.70;;
12689;SDS011;6409;56.294;14.480;2023-07-20T11:48:06;0.70;;;0.70;;
12689;SDS011;6409;56.294;14.480;2023-07-20T11:50:38;0.80;;;0.80;;
12689;SDS011;6409;56.294;14.480;2023-07-20T11:53:08;0.80;;;0.80;;
12689;SDS011;6409;56.294;14.480;2023-07-20T11:55:35;0.80;;;0.80;;
12689;SDS011;6409;56.294;14.480;2023-07-20T11:58:04;0.73;;;0.73;;
12689;SDS011;6409;56.294;14.480;2023-07-20T12:00:31;0.87;;;0.87;;
12689;SDS011;6409;56.294;14.480;2023-07-20T12:02:58;0.90;;;0.90;;
12689;SDS011;6409;56.294;14.480;2023-07-20T12:05:27;0.90;;;0.90;;
12689;SDS011;6409;56.294;14.480;2023-07-20T12:07:54;0.90;;;0.90;;
12689;SDS011;6409;56.294;14.480;2023-07-20T12:10:24;0.90;;;0.90;;
12689;SDS011;6409;56.294;14.480;2023-07-20T12:12:52;1.00;;;1.00;;
12689;SDS011;6409;56.294;14.480;2023-07-20T12:15:20;0.90;;;0.90;;
12689;SDS011;6409;56.294;14.480;2023-07-20T12:17:49;0.90;;;0.90;;
12689;SDS011;6409;56.294;14.480;2023-07-20T12:20:24;0.93;;;0.93;;
12689;SDS011;6409;56.294;14.480;2023-07-20T12:22:55;1.00;;;1.00;;
12689;SDS011;6409;56.294;14.480;2023-07-20T12:25:23;0.90;;;0.90;;
12689;SDS011;6409;56.294;14.480;2023-07-20T12:27:50;1.10;;;1.10;;
12689;SDS011;6409;56.294;14.480;2023-07-20T12:30:17;1.10;;;1.10;;
12689;SDS011;6409;56.294;14.480;2023-07-20T12:32:44;1.00;;;1.00;;
12689;SDS011;6409;56.294;14.480;2023-07-20T12:35:10;1.00;;;1.00;;
12689;SDS011;6409;56.294;14.480;2023-07-20T12:37:41;1.00;;;1.00;;
12689;SDS011;6409;56.294;14.480;2023-07-20T12:40:08;1.00;;;1.00;;
12689;SDS011;6409;56.294;14.480;2023-07-20T12:42:36;1.00;;;1.00;;
12689;SDS011;6409;56.294;14.480;2023-07-20T12:45:04;1.00;;;1.00;;
12689;SDS011;6409;56.294;14.480;2023-07-20T12:47:31;1.00;;;1.00;;
12689;SDS011;6409;56.294;14.480;2023-07-20T12:49:59;1.00;;;1.00;;
12689;SDS011;6409;56.294;14.480;2023-07-20T12:52:26;1.00;;;1.00;;
12689;SDS011;6409;56.294;14.480;2023-07-20T12:54:54;1.20;;;1.20;;
12689;SDS011;6409;56.294;14.480;2023-07-20T12:57:21;1.20;;;1.20;;
12689;SDS011;6409;56.294;14.480;2023-07-20T12:59:48;1.30;;;1.30;;
12689;SDS011;6409;56.294;14.480;2023-07-20T13:02:15;1.30;;;1.30;;
12689;SDS011;6409;56.294;14.480;2023-07-20T13:04:42;1.30;;;1.30;;
12689;SDS011;6409;56.294;14.480;2023-07-20T13:07:09;1.40;;;1.40;;
12689;SDS011;6409;56.294;14.480;2023-07-20T13:09:37;0.90;;;0.90;;
12689;SDS011;6409;56.294;14.480;2023-07-20T13:12:05;1.10;;;1.10;;
12689;SDS011;6409;56.294;14.480;2023-07-20T13:14:33;0.90;;;0.90;;
12689;SDS011;6409;56.294;14.480;2023-07-20T13:17:00;0.93;;;0.93;;
12689;SDS011;6409;56.294;14.480;2023-07-20T13:19:27;0.97;;;0.97;;
12689;SDS011;6409;56.294;14.480;2023-07-20T13:21:54;1.00;;;1.00;;
12689;SDS011;6409;56.294;14.480;2023-07-20T13:24:21;1.00;;;1.00;;
12689;SDS011;6409;56.294;14.480;2023-07-20T13:26:48;1.00;;;1.00;;
12689;SDS011;6409;56.294;14.480;2023-07-20T13:29:17;1.00;;;1.00;;
12689;SDS011;6409;56.294;14.480;2023-07-20T13:31:44;0.90;;;0.90;;
12689;SDS011;6409;56.294;14.480;2023-07-20T13:34:11;1.00;;;1.00;;
12689;SDS011;6409;56.294;14.480;2023-07-20T13:36:38;1.00;;;1.00;;
12689;SDS011;6409;56.294;14.480;2023-07-20T13:39:05;1.00;;;1.00;;
12689;SDS011;6409;56.294;14.480;2023-07-20T13:41:34;1.00;;;1.00;;
12689;SDS011;6409;56.294;14.480;2023-07-20T13:44:00;1.00;;;1.00;;
12689;SDS011;6409;56.294;14.480;2023-07-20T13:46:29;0.90;;;0.90;;
12689;SDS011;6409;56.294;14.480;2023-07-20T13:48:56;0.90;;;0.90;;
12689;SDS011;6409;56.294;14.480;2023-07-20T13:51:23;0.90;;;0.90;;
12689;SDS011;6409;56.294;14.480;2023-07-20T13:53:49;0.90;;;0.90;;
12689;SDS011;6409;56.294;14.480;2023-07-20T13:56:16;0.80;;;0.80;;
12689;SDS011;6409;56.294;14.480;2023-07-20T13:58:43;0.90;;;0.90;;
12689;SDS011;6409;56.294;14.480;2023-07-20T14:01:10;0.90;;;0.90;;
12689;SDS011;6409;56.294;14.480;2023-07-20T14:03:39;0.80;;;0.80;;
12689;SDS011;6409;56.294;14.480;2023-07-20T14:06:05;0.80;;;0.80;;
12689;SDS011;6409;56.294;14.480;2023-07-20T14:08:32;0.93;;;0.93;;
12689;SDS011;6409;56.294;14.480;2023-07-20T14:10:59;1.00;;;1.00;;
12689;SDS011;6409;56.294;14.480;2023-07-20T14:13:26;1.00;;;1.00;;
12689;SDS011;6409;56.294;14.480;2023-07-20T14:15:53;1.00;;;1.00;;
12689;SDS011;6409;56.294;14.480;2023-07-20T14:18:20;1.20;;;1.20;;
12689;SDS011;6409;56.294;14.480;2023-07-20T14:20:48;1.20;;;1.20;;
12689;SDS011;6409;56.294;14.480;2023-07-20T14:23:15;1.20;;;1.20;;
12689;SDS011;6409;56.294;14.480;2023-07-20T14:25:42;1.10;;;1.10;;
12689;SDS011;6409;56.294;14.480;2023-07-20T14:28:09;1.20;;;1.20;;
12689;SDS011;6409;56.294;14.480;2023-07-20T14:30:37;0.70;;;0.70;;
12689;SDS011;6409;56.294;14.480;2023-07-20T14:33:05;0.70;;;0.70;;
12689;SDS011;6409;56.294;14.480;2023-07-20T14:35:32;0.70;;;0.70;;
12689;SDS011;6409;56.294;14.480;2023-07-20T14:38:01;0.70;;;0.70;;
12689;SDS011;6409;56.294;14.480;2023-07-20T14:40:28;0.60;;;0.60;;
12689;SDS011;6409;56.294;14.480;2023-07-20T14:42:55;0.70;;;0.70;;
12689;SDS011;6409;56.294;14.480;2023-07-20T14:45:22;0.60;;;0.60;;
12689;SDS011;6409;56.294;14.480;2023-07-20T14:47:49;0.60;;;0.60;;
12689;SDS011;6409;56.294;14.480;2023-07-20T14:50:18;0.70;;;0.70;;
12689;SDS011;6409;56.294;14.480;2023-07-20T14:52:45;0.70;;;0.70;;
12689;SDS011;6409;56.294;14.480;2023-07-20T14:55:14;0.60;;;0.60;;
12689;SDS011;6409;56.294;14.480;2023-07-20T14:57:41;0.70;;;0.70;;
12689;SDS011;6409;56.294;14.480;2023-07-20T15:00:08;0.60;;;0.60;;